Time;durP1;ratioP1;P1;durP2;ratioP2;P2;SDS_P1;SDS_P2;PMS_P1;PMS_P2;Temp;Humidity;BMP_temperature;BMP_pressure;BME280_temperature;BME280_humidity;BME280_pressure;Samples;Min_cycle;Max_cycle;Signal;HPM_P1;HPM_P2
2021/04/21 00:02:21;;;;;;;1.40;0.10;;;18.20;95.60;;;;;;4988450;28;20033;-67
2021/04/21 00:04:51;;;;;;;0.47;0.00;;;18.30;95.50;;;;;;4986092;28;20022;-66
2021/04/21 00:07:19;;;;;;;0.85;0.20;;;18.40;95.00;;;;;;4986638;28;20034;-66
2021/04/21 00:09:48;;;;;;;3.00;0.50;;;18.50;95.30;;;;;;4989383;28;20487;-66
2021/04/21 00:12:17;;;;;;;1.50;0.32;;;18.60;94.60;;;;;;4990346;28;20022;-66
2021/04/21 00:14:52;;;;;;;0.88;0.20;;;18.60;94.80;;;;;;4990416;28;20071;-67
2021/04/21 00:17:24;;;;;;;2.20;0.13;;;18.70;94.80;;;;;;4992544;28;20120;-66
2021/04/21 00:19:57;;;;;;;2.58;0.20;;;18.50;94.60;;;;;;4992706;28;20113;-67
2021/04/21 00:22:27;;;;;;;3.33;0.30;;;18.00;95.60;;;;;;4987166;28;20026;-67
2021/04/21 00:24:54;;;;;;;3.90;0.60;;;18.80;95.10;;;;;;5015088;28;20497;-67
2021/04/21 00:27:26;;;;;;;1.20;0.20;;;19.00;95.00;;;;;;4999106;28;20080;-67
2021/04/21 00:30:01;;;;;;;2.17;0.30;;;18.70;94.60;;;;;;4993842;28;20023;-67
2021/04/21 00:32:29;;;;;;;1.02;0.20;;;18.80;95.60;;;;;;4992646;28;20113;-67
2021/04/21 00:34:57;;;;;;;2.75;0.20;;;19.40;94.50;;;;;;4995000;28;20014;-67
2021/04/21 00:37:30;;;;;;;1.88;0.30;;;19.00;94.30;;;;;;4989740;28;20038;-68
2021/04/21 00:40:00;;;;;;;2.33;0.40;;;18.80;94.60;;;;;;4994876;28;20385;-67
2021/04/21 00:42:45;;;;;;;2.00;0.20;;;18.80;94.40;;;;;;4992822;28;20027;-67
2021/04/21 00:45:15;;;;;;;1.75;0.40;;;19.50;94.90;;;;;;4992232;28;20072;-67
2021/04/21 00:48:10;;;;;;;1.92;0.20;;;19.20;94.20;;;;;;4992914;28;20050;-67
2021/04/21 00:51:02;;;;;;;1.45;0.20;;;19.00;94.70;;;;;;4994860;28;20042;-67
2021/04/21 00:53:48;;;;;;;4.65;0.82;;;19.00;94.80;;;;;;4991369;28;20034;-67
2021/04/21 00:56:37;;;;;;;0.80;0.20;;;19.00;94.50;;;;;;4993544;28;20034;-66
2021/04/21 00:59:13;;;;;;;4.10;0.85;;;19.20;94.80;;;;;;4991962;28;20031;-68
2021/04/21 01:01:41;;;;;;;2.47;0.30;;;18.70;94.60;;;;;;4993854;28;20032;-67
2021/04/21 01:04:11;;;;;;;2.35;0.45;;;18.30;94.50;;;;;;4992345;28;20022;-68
2021/04/21 01:06:42;;;;;;;0.88;0.20;;;17.90;95.40;;;;;;4987349;28;20043;-67
2021/04/21 01:09:11;;;;;;;3.05;0.28;;;17.60;96.00;;;;;;4993421;28;20077;-67
2021/04/21 01:11:44;;;;;;;2.20;0.30;;;17.70;96.00;;;;;;4992410;28;20034;-68
2021/04/21 01:14:20;;;;;;;3.70;0.20;;;18.40;96.10;;;;;;4989989;28;20038;-68
2021/04/21 01:16:58;;;;;;;2.47;0.10;;;18.60;93.90;;;;;;4989342;28;20031;-67
2021/04/21 01:19:37;;;;;;;1.98;0.10;;;18.50;94.20;;;;;;4975073;28;20391;-67
2021/04/21 01:22:25;;;;;;;0.70;0.15;;;18.80;93.90;;;;;;4988263;28;20023;-68
2021/04/21 01:25:08;;;;;;;1.83;0.32;;;19.00;93.80;;;;;;4989827;28;20035;-69
2021/04/21 01:27:50;;;;;;;1.45;0.25;;;19.20;93.70;;;;;;4991944;28;20037;-69
2021/04/21 01:30:22;;;;;;;1.83;0.20;;;20.10;93.70;;;;;;4986396;28;20564;-67
2021/04/21 01:32:52;;;;;;;0.75;0.10;;;20.60;92.60;;;;;;4998855;28;20069;-68
2021/04/21 01:35:22;;;;;;;1.27;0.20;;;20.10;93.40;;;;;;4987756;28;20611;-65
2021/04/21 01:37:58;;;;;;;1.77;0.28;;;20.00;92.50;;;;;;4987663;28;20026;-65
2021/04/21 01:40:39;;;;;;;2.05;0.40;;;19.70;93.40;;;;;;4986338;28;20027;-68
2021/04/21 01:43:34;;;;;;;3.15;0.20;;;20.40;94.70;;;;;;4988796;28;20083;-66
2021/04/21 01:46:04;;;;;;;1.70;0.57;;;20.70;93.70;;;;;;4991319;28;20018;-67
2021/04/21 01:48:34;;;;;;;1.55;0.17;;;20.90;92.70;;;;;;4993094;28;20038;-66
2021/04/21 01:51:37;;;;;;;3.05;0.17;;;20.50;92.90;;;;;;4981189;28;20130;-67
2021/04/21 01:54:15;;;;;;;5.32;0.52;;;20.50;93.40;;;;;;4990176;28;20110;-67
2021/04/21 01:56:59;;;;;;;10.00;0.70;;;21.10;92.30;;;;;;4987532;28;20030;-67
2021/04/21 01:59:51;;;;;;;11.43;0.80;;;20.30;91.60;;;;;;4989153;28;20098;-70
2021/04/21 02:02:46;;;;;;;3.15;0.30;;;20.00;92.90;;;;;;5014681;28;20033;-68
2021/04/21 02:05:32;;;;;;;6.13;0.30;;;20.40;91.60;;;;;;5012939;28;20026;-68
2021/04/21 02:08:15;;;;;;;4.60;0.30;;;20.70;92.40;;;;;;5010889;28;20050;-67
2021/04/21 02:10:56;;;;;;;3.05;0.30;;;21.20;91.00;;;;;;5014414;28;20025;-67
2021/04/21 02:13:42;;;;;;;1.00;0.20;;;21.80;91.00;;;;;;5010787;28;20142;-67
2021/04/21 02:16:23;;;;;;;2.20;0.22;;;21.60;91.80;;;;;;5013622;28;20042;-68
2021/04/21 02:18:53;;;;;;;4.25;0.50;;;21.20;90.30;;;;;;5016795;28;20014;-67
2021/04/21 02:21:48;;;;;;;2.85;0.43;;;20.70;90.60;;;;;;5013139;28;20033;-66
2021/04/21 02:24:53;;;;;;;3.47;0.50;;;20.70;91.20;;;;;;5015815;28;20030;-66
2021/04/21 02:27:39;;;;;;;6.43;0.52;;;21.00;89.60;;;;;;5012721;28;20034;-66
2021/04/21 02:30:29;;;;;;;9.32;0.80;;;20.40;90.50;;;;;;5015445;28;20023;-67
2021/04/21 02:33:14;;;;;;;6.40;0.55;;;20.10;90.50;;;;;;5012971;28;20022;-66
2021/04/21 02:35:59;;;;;;;6.72;0.47;;;20.10;92.00;;;;;;5016247;28;20029;-66
2021/04/21 02:38:41;;;;;;;3.30;0.65;;;20.50;89.60;;;;;;5013085;28;20041;-66
2021/04/21 02:41:20;;;;;;;1.88;0.70;;;20.50;90.60;;;;;;5015105;28;20510;-66
2021/04/21 02:44:06;;;;;;;5.40;0.90;;;20.70;90.30;;;;;;5025228;28;20019;-66
2021/04/21 02:46:55;;;;;;;4.63;0.55;;;21.10;90.20;;;;;;5016041;28;20049;-66
2021/04/21 02:49:48;;;;;;;3.17;0.50;;;21.50;89.20;;;;;;5014674;28;20065;-66
2021/04/21 02:52:41;;;;;;;3.60;0.40;;;21.30;89.00;;;;;;5013196;28;20014;-66
2021/04/21 02:55:22;;;;;;;2.53;1.13;;;21.50;90.00;;;;;;5011260;28;20022;-66
2021/04/21 02:58:15;;;;;;;3.15;0.30;;;21.40;88.10;;;;;;5019051;28;20037;-67
2021/04/21 03:01:00;;;;;;;5.40;0.68;;;21.30;88.70;;;;;;5023329;28;20010;-66
2021/04/21 03:03:29;;;;;;;3.15;0.30;;;21.40;87.90;;;;;;5015687;28;20031;-66
2021/04/21 03:06:11;;;;;;;10.52;0.70;;;21.00;87.10;;;;;;5016720;28;20042;-67
2021/04/21 03:08:49;;;;;;;2.47;0.63;;;20.80;86.80;;;;;;5019129;28;20010;-66
2021/04/21 03:11:24;;;;;;;2.92;0.50;;;20.60;87.90;;;;;;5023211;28;20050;-66
2021/04/21 03:13:56;;;;;;;3.80;0.85;;;20.80;88.50;;;;;;5012875;28;20037;-66
2021/04/21 03:16:26;;;;;;;4.53;0.40;;;20.60;87.10;;;;;;5003478;28;20053;-66
2021/04/21 03:18:55;;;;;;;5.28;0.47;;;20.60;87.70;;;;;;4987579;28;20106;-66
2021/04/21 03:21:28;;;;;;;4.97;0.73;;;20.80;88.30;;;;;;4992523;28;20436;-66
2021/04/21 03:24:20;;;;;;;3.65;0.32;;;20.90;87.50;;;;;;4990406;28;20025;-66
2021/04/21 03:26:54;;;;;;;3.92;0.50;;;20.80;87.40;;;;;;4985092;28;20092;-65
2021/04/21 03:29:46;;;;;;;3.20;0.50;;;20.70;87.00;;;;;;4991674;28;20108;-66
2021/04/21 03:32:37;;;;;;;6.15;0.47;;;20.80;86.60;;;;;;4980954;28;20030;-65
2021/04/21 03:35:07;;;;;;;3.85;0.40;;;20.40;87.70;;;;;;4990264;28;20050;-66
2021/04/21 03:37:37;;;;;;;3.53;0.40;;;20.20;87.70;;;;;;4992445;28;20427;-66
2021/04/21 03:40:05;;;;;;;2.70;0.35;;;20.30;87.30;;;;;;4993218;28;20021;-65
2021/04/21 03:42:33;;;;;;;7.13;0.60;;;20.30;90.20;;;;;;4992387;28;20110;-66
2021/04/21 03:45:02;;;;;;;2.35;0.20;;;20.10;88.00;;;;;;4991978;28;20380;-66
2021/04/21 03:47:30;;;;;;;3.67;0.50;;;20.10;88.00;;;;;;4998975;28;20107;-66
2021/04/21 03:49:58;;;;;;;1.95;0.30;;;20.20;89.60;;;;;;5004685;28;20066;-66
2021/04/21 03:52:28;;;;;;;2.97;0.90;;;20.00;88.80;;;;;;4996884;28;20438;-66
2021/04/21 03:54:56;;;;;;;6.93;0.80;;;19.90;90.00;;;;;;4991028;28;20029;-66
2021/04/21 03:57:27;;;;;;;1.40;0.20;;;19.90;90.10;;;;;;4986596;28;20014;-66
2021/04/21 03:59:56;;;;;;;1.42;0.30;;;20.10;89.90;;;;;;5017370;28;20101;-66
2021/04/21 04:02:29;;;;;;;3.00;0.40;;;19.80;90.00;;;;;;5002597;28;20077;-66
2021/04/21 04:05:05;;;;;;;2.25;0.30;;;19.80;90.40;;;;;;4999324;28;20031;-67
2021/04/21 04:07:41;;;;;;;5.38;0.57;;;19.90;90.80;;;;;;5000947;28;20045;-66
2021/04/21 04:10:13;;;;;;;5.25;0.50;;;19.70;91.00;;;;;;5003519;28;20038;-67
2021/04/21 04:12:44;;;;;;;3.95;0.40;;;19.60;91.40;;;;;;5002542;28;20028;-66
2021/04/21 04:15:14;;;;;;;5.68;0.80;;;19.50;91.30;;;;;;5002808;28;20026;-66
2021/04/21 04:17:47;;;;;;;6.97;0.70;;;19.70;91.90;;;;;;4999448;28;20031;-66
2021/04/21 04:20:16;;;;;;;6.30;0.40;;;19.50;92.40;;;;;;4997566;28;20019;-66
2021/04/21 04:22:48;;;;;;;5.10;0.93;;;19.50;92.30;;;;;;4995423;28;20069;-67
2021/04/21 04:25:17;;;;;;;6.72;0.68;;;19.50;92.50;;;;;;4996480;28;20030;-66
2021/04/21 04:27:46;;;;;;;2.92;0.30;;;19.30;92.80;;;;;;4997472;28;20032;-66
2021/04/21 04:30:14;;;;;;;1.70;0.45;;;19.10;93.10;;;;;;5009982;28;20030;-67
2021/04/21 04:32:44;;;;;;;4.28;0.30;;;18.90;93.30;;;;;;4996116;28;20033;-67
2021/04/21 04:35:12;;;;;;;2.80;0.30;;;18.90;93.70;;;;;;4994303;28;20058;-67
2021/04/21 04:37:41;;;;;;;8.00;0.95;;;18.90;93.20;;;;;;4994585;28;20022;-67
2021/04/21 04:40:11;;;;;;;4.93;0.40;;;18.80;93.20;;;;;;4991353;28;20023;-67
2021/04/21 04:42:38;;;;;;;5.80;0.93;;;19.00;93.00;;;;;;4990606;28;20030;-67
2021/04/21 04:45:08;;;;;;;6.90;0.75;;;19.00;92.90;;;;;;4989686;28;20041;-67
2021/04/21 04:47:58;;;;;;;9.35;0.40;;;19.00;93.70;;;;;;4993520;28;20057;-66
2021/04/21 04:50:26;;;;;;;4.38;0.80;;;18.80;93.50;;;;;;4990247;28;20062;-66
2021/04/21 04:52:56;;;;;;;6.53;0.65;;;18.80;93.80;;;;;;4991555;28;20108;-67
2021/04/21 04:55:27;;;;;;;3.50;0.40;;;18.70;93.20;;;;;;4991980;28;20023;-66
2021/04/21 04:57:56;;;;;;;2.53;0.50;;;18.50;93.50;;;;;;4988498;28;20047;-67
2021/04/21 05:00:27;;;;;;;4.00;0.50;;;18.50;93.40;;;;;;4990915;28;20487;-67
2021/04/21 05:03:06;;;;;;;2.17;0.50;;;18.50;94.10;;;;;;4987215;28;20023;-67
2021/04/21 05:05:36;;;;;;;1.63;0.30;;;18.50;94.60;;;;;;4992235;28;20081;-67
2021/04/21 05:08:16;;;;;;;11.98;0.77;;;18.40;94.60;;;;;;4991202;28;20113;-67
2021/04/21 05:10:57;;;;;;;5.63;0.80;;;18.30;95.00;;;;;;4992093;28;20391;-67
2021/04/21 05:13:27;;;;;;;4.47;0.63;;;18.50;95.20;;;;;;4989466;28;20053;-67
2021/04/21 05:15:54;;;;;;;4.97;0.40;;;18.50;94.20;;;;;;4977290;28;20114;-67
2021/04/21 05:18:39;;;;;;;5.30;0.50;;;18.50;94.50;;;;;;4986775;28;20022;-67
2021/04/21 05:21:43;;;;;;;5.90;0.68;;;18.30;95.10;;;;;;4993734;28;20053;-67
2021/04/21 05:24:25;;;;;;;5.15;0.70;;;18.30;95.40;;;;;;4994516;28;20085;-67
2021/04/21 05:27:33;;;;;;;4.32;0.55;;;18.40;94.90;;;;;;4990926;28;20023;-67
2021/04/21 05:30:25;;;;;;;3.75;0.30;;;18.40;94.60;;;;;;4994476;28;20397;-67
2021/04/21 05:33:20;;;;;;;7.47;1.30;;;18.30;95.30;;;;;;4993667;28;20031;-68
2021/04/21 05:36:16;;;;;;;5.53;0.50;;;18.20;95.70;;;;;;4993714;28;20491;-67
2021/04/21 05:39:08;;;;;;;2.95;0.52;;;18.20;95.40;;;;;;4994247;28;20053;-67
2021/04/21 05:41:53;;;;;;;4.22;0.85;;;18.30;94.80;;;;;;5008778;28;20034;-67
2021/04/21 05:44:54;;;;;;;5.70;0.75;;;18.20;95.40;;;;;;4985478;28;20030;-68
2021/04/21 05:47:50;;;;;;;3.97;0.70;;;18.20;95.60;;;;;;5003066;28;20443;-68
2021/04/21 05:50:30;;;;;;;1.23;0.40;;;18.10;95.80;;;;;;4982279;28;20037;-68
2021/04/21 05:53:27;;;;;;;3.05;0.50;;;18.10;95.70;;;;;;4995859;28;20014;-68
2021/04/21 05:56:25;;;;;;;7.75;1.20;;;18.10;96.20;;;;;;4994156;28;20076;-68
2021/04/21 05:59:24;;;;;;;6.32;0.73;;;18.10;96.10;;;;;;4988388;28;20035;-67
2021/04/21 06:01:53;;;;;;;2.00;0.70;;;18.00;95.90;;;;;;4974921;28;20462;-68
2021/04/21 06:04:23;;;;;;;3.65;0.52;;;17.90;96.60;;;;;;4983036;28;20026;-68
2021/04/21 06:07:04;;;;;;;5.00;0.55;;;18.00;96.00;;;;;;4990052;28;20054;-68
2021/04/21 06:09:31;;;;;;;4.18;0.50;;;18.00;96.40;;;;;;4986174;28;20110;-68
2021/04/21 06:12:10;;;;;;;5.20;1.00;;;18.10;96.30;;;;;;4990245;28;20393;-67
2021/04/21 06:14:40;;;;;;;4.03;0.52;;;18.20;96.30;;;;;;4986115;28;20041;-68
2021/04/21 06:17:07;;;;;;;7.60;1.13;;;18.20;96.50;;;;;;4991512;28;20109;-67
2021/04/21 06:19:34;;;;;;;4.72;0.70;;;18.10;96.50;;;;;;4988874;28;20436;-68
2021/04/21 06:22:02;;;;;;;4.10;0.70;;;18.10;96.30;;;;;;4990699;28;20037;-67
2021/04/21 06:24:30;;;;;;;8.85;0.95;;;18.10;96.10;;;;;;4980881;28;20030;-68
2021/04/21 06:27:08;;;;;;;8.98;1.48;;;18.10;96.70;;;;;;4999369;28;20097;-68
2021/04/21 06:29:36;;;;;;;7.32;0.57;;;18.00;96.50;;;;;;4993555;28;20050;-67
2021/04/21 06:32:13;;;;;;;2.45;0.52;;;18.00;96.40;;;;;;4991885;28;20059;-68
2021/04/21 06:34:40;;;;;;;4.35;0.82;;;18.00;96.50;;;;;;4992097;28;20271;-67
2021/04/21 06:37:09;;;;;;;3.85;0.50;;;17.90;96.60;;;;;;4991016;28;20046;-67
2021/04/21 06:39:36;;;;;;;4.82;0.57;;;17.90;96.70;;;;;;4993410;28;20033;-68
2021/04/21 06:42:05;;;;;;;3.08;0.50;;;17.90;96.30;;;;;;4990424;28;20027;-68
2021/04/21 06:44:46;;;;;;;10.23;3.45;;;17.90;96.60;;;;;;4991237;28;20028;-68
2021/04/21 06:47:25;;;;;;;11.43;2.95;;;17.80;96.70;;;;;;5003221;28;20054;-67
2021/04/21 06:50:18;;;;;;;7.53;1.13;;;17.70;97.00;;;;;;4993584;28;20125;-68
2021/04/21 06:52:46;;;;;;;4.35;0.63;;;17.70;96.90;;;;;;4991389;28;20521;-68
2021/04/21 06:55:16;;;;;;;6.40;0.73;;;17.60;96.50;;;;;;4993033;28;20065;-68
2021/04/21 06:57:44;;;;;;;5.55;1.20;;;17.60;96.80;;;;;;4989326;28;20034;-68
2021/04/21 07:00:35;;;;;;;4.97;1.00;;;17.60;97.10;;;;;;4991832;28;20433;-68
2021/04/21 07:03:03;;;;;;;8.13;0.75;;;17.60;97.10;;;;;;4988199;28;20043;-68
2021/04/21 07:05:38;;;;;;;4.97;0.60;;;17.50;96.90;;;;;;4989693;28;20023;-68
2021/04/21 07:08:08;;;;;;;3.83;0.50;;;17.50;97.00;;;;;;4990460;28;20410;-68
2021/04/21 07:10:51;;;;;;;3.05;0.50;;;17.50;96.80;;;;;;4992785;28;20368;-68
2021/04/21 07:13:28;;;;;;;6.35;1.02;;;17.40;96.70;;;;;;4990003;28;20110;-68
2021/04/21 07:16:00;;;;;;;5.63;0.77;;;17.40;96.80;;;;;;4985700;28;20026;-68
2021/04/21 07:18:39;;;;;;;4.50;0.52;;;17.30;97.00;;;;;;4982727;28;20089;-68
2021/04/21 07:21:11;;;;;;;4.38;0.70;;;17.30;97.10;;;;;;4977235;28;20042;-68
2021/04/21 07:23:44;;;;;;;5.97;1.40;;;17.30;97.50;;;;;;4990901;28;20402;-68
2021/04/21 07:26:12;;;;;;;6.50;1.30;;;17.30;97.10;;;;;;4993350;28;20141;-68
2021/04/21 07:28:40;;;;;;;5.18;1.40;;;17.30;97.10;;;;;;4994761;28;20291;-68
2021/04/21 07:31:18;;;;;;;12.25;2.85;;;17.30;97.40;;;;;;4996950;28;20113;-68
2021/04/21 07:33:47;;;;;;;4.57;1.55;;;17.30;97.20;;;;;;4995205;28;20026;-68
2021/04/21 07:36:16;;;;;;;6.78;1.00;;;17.30;97.20;;;;;;4993025;28;20022;-68
2021/04/21 07:39:07;;;;;;;6.45;0.93;;;17.20;96.90;;;;;;4992558;28;20041;-68
2021/04/21 07:41:43;;;;;;;5.32;0.70;;;17.20;96.90;;;;;;4996936;28;20467;-68
2021/04/21 07:44:32;;;;;;;8.15;0.90;;;17.10;97.20;;;;;;4996803;28;20109;-67
2021/04/21 07:47:08;;;;;;;4.70;0.75;;;17.00;97.30;;;;;;5008029;28;20045;-68
2021/04/21 07:49:40;;;;;;;12.52;0.88;;;17.00;96.80;;;;;;4995535;28;20085;-67
2021/04/21 07:52:08;;;;;;;12.48;1.40;;;17.00;97.00;;;;;;4995306;28;20049;-68
2021/04/21 07:54:38;;;;;;;6.82;1.40;;;16.90;97.10;;;;;;4992414;28;20037;-68
2021/04/21 07:57:15;;;;;;;6.70;1.50;;;16.90;97.80;;;;;;4988376;28;20033;-68
2021/04/21 07:59:44;;;;;;;7.97;2.55;;;16.90;97.30;;;;;;4995995;28;20435;-68
2021/04/21 08:02:17;;;;;;;5.60;1.58;;;16.80;97.90;;;;;;4992109;28;20015;-68
2021/04/21 08:04:59;;;;;;;3.72;0.80;;;16.80;97.50;;;;;;4993133;28;20087;-68
2021/04/21 08:07:27;;;;;;;5.28;1.90;;;16.90;97.20;;;;;;4992264;28;20030;-67
2021/04/21 08:09:55;;;;;;;4.97;0.98;;;16.90;97.60;;;;;;4994802;28;20022;-68
2021/04/21 08:12:24;;;;;;;3.97;0.80;;;16.90;97.50;;;;;;4991899;28;20044;-68
2021/04/21 08:14:56;;;;;;;4.63;1.30;;;16.90;97.90;;;;;;4986976;28;20027;-68
2021/04/21 08:17:23;;;;;;;6.82;1.27;;;16.80;98.30;;;;;;4990847;28;20023;-67
2021/04/21 08:19:57;;;;;;;5.07;1.15;;;16.80;98.70;;;;;;4994269;28;20062;-68
2021/04/21 08:22:29;;;;;;;8.48;1.15;;;16.70;99.00;;;;;;4992182;28;20053;-68
2021/04/21 08:24:58;;;;;;;8.05;1.42;;;16.70;99.60;;;;;;4994659;28;20041;-68
2021/04/21 08:27:26;;;;;;;9.65;1.20;;;16.70;99.70;;;;;;4991413;28;20451;-68
2021/04/21 08:29:53;;;;;;;7.35;1.35;;;16.70;99.90;;;;;;4993825;28;20034;-67
2021/04/21 08:32:24;;;;;;;6.18;1.30;;;16.70;99.90;;;;;;4986764;28;20037;-67
2021/04/21 08:34:53;;;;;;;11.88;1.00;;;16.60;99.90;;;;;;4993944;28;20091;-67
2021/04/21 08:37:21;;;;;;;9.50;1.65;;;16.70;99.90;;;;;;4991576;28;20054;-67
2021/04/21 08:39:48;;;;;;;5.20;1.50;;;16.70;99.90;;;;;;4994988;28;20495;-67
2021/04/21 08:42:19;;;;;;;4.53;1.23;;;16.70;99.90;;;;;;4992540;28;20034;-68
2021/04/21 08:44:46;;;;;;;3.88;1.33;;;16.60;99.90;;;;;;4993668;28;20467;-68
2021/04/21 08:47:16;;;;;;;6.57;1.17;;;16.50;99.90;;;;;;4991617;28;20022;-69
2021/04/21 08:49:45;;;;;;;8.30;2.10;;;16.50;99.90;;;;;;4990852;28;20058;-69
2021/04/21 08:52:17;;;;;;;8.93;2.10;;;16.40;99.90;;;;;;4991566;28;20031;-68
2021/04/21 08:55:04;;;;;;;9.75;2.50;;;16.30;99.90;;;;;;4993772;28;20026;-68
2021/04/21 08:57:32;;;;;;;10.60;2.00;;;16.20;99.90;;;;;;4993006;28;20037;-67
2021/04/21 09:00:00;;;;;;;7.38;1.67;;;16.10;99.90;;;;;;4992185;28;20026;-67
2021/04/21 09:02:28;;;;;;;5.22;1.00;;;16.10;99.90;;;;;;4991149;28;20026;-67
2021/04/21 09:04:55;;;;;;;5.60;1.25;;;16.00;99.90;;;;;;4995437;28;20502;-63
2021/04/21 09:07:23;;;;;;;6.68;1.23;;;16.00;99.90;;;;;;4992811;28;20046;-66
2021/04/21 09:09:51;;;;;;;6.25;2.08;;;16.00;99.90;;;;;;4995423;28;20109;-67
2021/04/21 09:12:18;;;;;;;5.32;1.60;;;16.00;99.90;;;;;;4991539;28;20120;-67
2021/04/21 09:14:45;;;;;;;8.80;1.50;;;16.00;99.90;;;;;;4986160;28;20031;-67
2021/04/21 09:17:13;;;;;;;8.30;2.40;;;15.90;99.90;;;;;;4987857;28;20093;-67
2021/04/21 09:19:40;;;;;;;6.80;2.10;;;15.90;99.90;;;;;;4992600;28;20039;-67
2021/04/21 09:22:10;;;;;;;11.63;3.33;;;15.90;99.90;;;;;;4989252;28;20026;-67
2021/04/21 09:24:38;;;;;;;8.45;3.17;;;15.90;99.90;;;;;;4993689;28;20110;-67
2021/04/21 09:27:31;;;;;;;11.93;2.17;;;15.80;99.90;;;;;;4991656;28;20030;-68
2021/04/21 09:30:15;;;;;;;5.82;2.10;;;15.80;99.90;;;;;;4975113;28;20105;-68
2021/04/21 09:33:00;;;;;;;4.90;2.38;;;15.90;99.90;;;;;;4981430;28;20031;-68
2021/04/21 09:35:30;;;;;;;9.23;2.15;;;15.80;99.90;;;;;;4993100;28;20042;-68
2021/04/21 09:38:19;;;;;;;6.72;1.38;;;15.80;99.90;;;;;;4992034;28;20026;-68
2021/04/21 09:40:53;;;;;;;6.07;2.13;;;15.70;99.90;;;;;;4993330;28;20395;-68
2021/04/21 09:43:24;;;;;;;4.43;1.42;;;15.60;99.90;;;;;;4987227;28;20034;-67
2021/04/21 09:45:59;;;;;;;7.60;2.15;;;15.60;99.90;;;;;;4996271;28;20432;-67
2021/04/21 09:48:33;;;;;;;6.65;3.97;;;15.60;99.90;;;;;;4991382;28;20117;-68
2021/04/21 09:51:12;;;;;;;9.65;3.75;;;15.50;99.90;;;;;;4993658;28;20042;-68
2021/04/21 09:53:47;;;;;;;9.88;3.58;;;15.50;99.90;;;;;;4991196;28;20041;-68
2021/04/21 09:56:21;;;;;;;7.68;2.70;;;15.60;99.90;;;;;;4993528;28;20073;-68
2021/04/21 09:59:00;;;;;;;8.95;3.00;;;15.60;99.90;;;;;;4988871;28;20033;-68
2021/04/21 10:01:35;;;;;;;7.75;2.45;;;15.70;99.90;;;;;;4990989;28;20388;-68
2021/04/21 10:04:26;;;;;;;5.13;1.60;;;15.70;99.90;;;;;;4989955;28;20050;-68
2021/04/21 10:06:55;;;;;;;7.03;1.77;;;15.60;99.90;;;;;;4991549;28;20034;-68
2021/04/21 10:09:33;;;;;;;6.88;1.73;;;15.60;99.90;;;;;;4991881;28;20133;-68
2021/04/21 10:12:22;;;;;;;5.70;2.03;;;15.60;99.90;;;;;;4992530;28;20033;-68
2021/04/21 10:15:10;;;;;;;5.45;1.65;;;15.50;99.90;;;;;;4992815;28;20062;-69
2021/04/21 10:17:41;;;;;;;5.78;1.45;;;15.50;99.90;;;;;;4992671;28;20061;-69
2021/04/21 10:20:11;;;;;;;7.70;2.20;;;15.50;99.90;;;;;;4990392;28;20022;-69
2021/04/21 10:22:43;;;;;;;7.22;2.05;;;15.50;99.90;;;;;;4993120;28;20080;-69
2021/04/21 10:25:12;;;;;;;8.13;1.80;;;15.40;99.90;;;;;;5007289;28;20038;-68
2021/04/21 10:27:40;;;;;;;7.45;2.03;;;15.40;99.90;;;;;;4993146;28;20058;-72
2021/04/21 10:30:09;;;;;;;7.55;1.70;;;15.40;99.90;;;;;;4992455;28;20029;-68
2021/04/21 10:32:37;;;;;;;6.57;1.80;;;15.40;99.90;;;;;;4992298;28;20129;-68
2021/04/21 10:35:05;;;;;;;6.38;1.65;;;15.50;99.90;;;;;;4992116;28;20034;-68
2021/04/21 10:37:38;;;;;;;9.90;1.98;;;15.40;99.90;;;;;;4992927;28;20140;-68
2021/04/21 10:40:06;;;;;;;7.75;1.63;;;15.40;99.90;;;;;;4993179;28;20074;-68
2021/04/21 10:42:50;;;;;;;9.98;2.17;;;15.40;99.90;;;;;;4992958;28;20034;-68
2021/04/21 10:45:20;;;;;;;9.77;1.38;;;15.40;99.90;;;;;;4992780;28;20391;-68
2021/04/21 10:47:50;;;;;;;6.82;2.72;;;15.40;99.90;;;;;;4991158;28;20488;-68
2021/04/21 10:50:43;;;;;;;5.05;1.60;;;15.40;99.90;;;;;;4990602;28;20050;-69
2021/04/21 10:53:43;;;;;;;9.52;2.20;;;15.40;99.90;;;;;;4983995;28;20113;-69
2021/04/21 10:56:23;;;;;;;10.15;1.88;;;15.40;99.90;;;;;;4995363;28;20030;-68
2021/04/21 10:58:52;;;;;;;4.43;1.73;;;15.40;99.90;;;;;;4992518;28;20458;-68
2021/04/21 11:01:37;;;;;;;7.28;2.33;;;15.40;99.90;;;;;;5000651;28;20041;-65
2021/04/21 11:04:06;;;;;;;8.48;1.70;;;15.50;99.90;;;;;;4996717;28;20026;-70
2021/04/21 11:06:47;;;;;;;5.82;2.05;;;15.60;99.90;;;;;;4991153;28;20085;-71
2021/04/21 11:09:16;;;;;;;11.35;2.42;;;15.70;99.90;;;;;;4991465;28;20135;-69
2021/04/21 11:11:50;;;;;;;11.65;2.78;;;15.80;99.90;;;;;;4992642;28;20154;-69
2021/04/21 11:14:38;;;;;;;10.02;1.95;;;15.80;99.90;;;;;;4992932;28;20042;-69
2021/04/21 11:17:07;;;;;;;7.57;1.45;;;15.80;99.90;;;;;;4988703;28;20065;-69
2021/04/21 11:19:45;;;;;;;5.47;1.75;;;15.70;99.90;;;;;;4992090;28;20030;-68
2021/04/21 11:22:30;;;;;;;6.70;1.40;;;15.70;99.90;;;;;;4985952;28;20027;-67
2021/04/21 11:25:23;;;;;;;7.10;1.33;;;15.70;99.90;;;;;;4992687;28;20026;-67
2021/04/21 11:27:50;;;;;;;9.35;1.30;;;15.60;99.90;;;;;;4991987;28;20180;-68
2021/04/21 11:30:36;;;;;;;4.80;1.05;;;15.60;99.90;;;;;;4992681;28;20019;-67
2021/04/21 11:33:04;;;;;;;6.20;1.38;;;15.50;99.90;;;;;;4990861;28;20451;-67
2021/04/21 11:35:32;;;;;;;8.93;2.05;;;15.40;99.90;;;;;;4991100;28;20033;-67
2021/04/21 11:38:00;;;;;;;17.15;2.67;;;15.30;99.90;;;;;;4990880;28;20019;-67
2021/04/21 11:40:29;;;;;;;11.02;1.70;;;15.40;99.90;;;;;;4991686;28;20042;-68
2021/04/21 11:43:17;;;;;;;9.07;1.63;;;15.40;99.90;;;;;;4989295;28;20030;-68
2021/04/21 11:45:44;;;;;;;6.35;1.88;;;15.40;99.90;;;;;;4987268;28;20163;-68
2021/04/21 11:48:12;;;;;;;5.80;1.40;;;15.40;99.90;;;;;;4993072;28;20499;-68
2021/04/21 11:50:45;;;;;;;9.48;1.80;;;15.50;99.90;;;;;;4989784;28;20077;-68
2021/04/21 11:53:17;;;;;;;4.95;1.88;;;15.50;99.90;;;;;;4991256;28;20022;-68
2021/04/21 11:56:05;;;;;;;5.00;2.08;;;15.40;99.90;;;;;;4988600;28;20077;-67
2021/04/21 11:58:38;;;;;;;6.18;1.48;;;15.50;99.90;;;;;;4988900;28;20061;-67
2021/04/21 12:01:07;;;;;;;8.00;1.27;;;15.40;99.90;;;;;;4988499;28;20018;-67
2021/04/21 12:03:34;;;;;;;4.28;1.83;;;15.30;99.90;;;;;;4990666;28;20040;-68
2021/04/21 12:06:05;;;;;;;7.75;1.67;;;15.10;99.90;;;;;;4988221;28;20427;-68
2021/04/21 12:08:41;;;;;;;7.85;2.30;;;15.00;99.90;;;;;;4993497;28;20030;-68
2021/04/21 12:11:09;;;;;;;7.15;1.60;;;15.00;99.90;;;;;;4994865;28;20410;-67
2021/04/21 12:13:44;;;;;;;4.90;1.65;;;15.00;99.90;;;;;;4991552;28;20088;-67
2021/04/21 12:16:14;;;;;;;8.60;1.70;;;15.00;99.90;;;;;;4993758;28;20121;-67
2021/04/21 12:18:49;;;;;;;10.38;2.20;;;15.00;99.90;;;;;;5009482;28;20394;-68
2021/04/21 12:21:19;;;;;;;7.57;2.03;;;14.90;99.90;;;;;;4994108;28;20023;-68
2021/04/21 12:23:59;;;;;;;9.55;1.80;;;14.90;99.90;;;;;;4990847;28;20074;-68
2021/04/21 12:26:34;;;;;;;4.25;1.50;;;14.90;99.90;;;;;;4990834;28;20058;-68
2021/04/21 12:29:11;;;;;;;5.82;1.55;;;15.00;99.90;;;;;;4993981;28;20505;-67
2021/04/21 12:31:40;;;;;;;6.18;1.83;;;15.00;99.90;;;;;;4994153;28;20026;-68
2021/04/21 12:34:17;;;;;;;5.10;1.60;;;14.80;99.90;;;;;;4993680;28;20046;-68
2021/04/21 12:36:44;;;;;;;8.77;2.42;;;14.80;99.90;;;;;;4994994;28;20049;-68
2021/04/21 12:39:15;;;;;;;4.43;1.83;;;14.70;99.90;;;;;;4993345;28;20106;-68
2021/04/21 12:42:02;;;;;;;8.63;2.17;;;14.80;99.90;;;;;;4992725;28;20037;-68
2021/04/21 12:44:40;;;;;;;5.57;2.05;;;14.60;99.90;;;;;;4994365;28;20034;-68
2021/04/21 12:47:13;;;;;;;5.68;2.00;;;14.60;99.90;;;;;;4993341;28;20084;-68
2021/04/21 12:49:50;;;;;;;5.20;2.22;;;14.60;99.90;;;;;;4994491;28;20060;-68
2021/04/21 12:52:27;;;;;;;7.13;1.73;;;14.50;99.90;;;;;;4994448;28;20030;-68
2021/04/21 12:54:55;;;;;;;8.18;2.20;;;14.40;99.90;;;;;;4994504;28;20423;-68
2021/04/21 12:57:23;;;;;;;8.05;1.83;;;14.30;99.90;;;;;;4990752;28;20053;-68
2021/04/21 12:59:56;;;;;;;9.18;2.13;;;14.40;99.90;;;;;;4994353;28;20030;-68
2021/04/21 13:02:51;;;;;;;5.65;1.77;;;14.50;99.90;;;;;;4992756;28;20023;-68
2021/04/21 13:05:39;;;;;;;5.47;1.60;;;14.40;99.90;;;;;;4994398;28;20400;-68
2021/04/21 13:08:26;;;;;;;7.55;1.88;;;14.40;99.90;;;;;;4988403;28;20038;-68
2021/04/21 13:10:55;;;;;;;5.45;1.83;;;14.40;99.90;;;;;;4984920;28;20522;-68
2021/04/21 13:13:28;;;;;;;6.65;2.47;;;14.20;99.90;;;;;;4994372;28;20388;-68
2021/04/21 13:15:57;;;;;;;8.70;1.77;;;14.10;99.90;;;;;;4994413;28;20037;-68
2021/04/21 13:18:35;;;;;;;5.95;1.85;;;14.00;99.90;;;;;;4993602;28;20030;-68
2021/04/21 13:21:10;;;;;;;6.40;2.10;;;13.90;99.90;;;;;;4993684;28;20491;-68
2021/04/21 13:23:39;;;;;;;9.45;2.03;;;13.90;99.90;;;;;;4993698;28;20049;-68
2021/04/21 13:26:08;;;;;;;7.38;1.90;;;13.90;99.90;;;;;;4993741;28;20507;-68
2021/04/21 13:28:50;;;;;;;7.43;2.28;;;13.80;99.90;;;;;;4994474;28;20027;-68
2021/04/21 13:31:30;;;;;;;4.47;2.05;;;13.80;99.90;;;;;;4993656;28;20025;-68